Weather reports worldwide

Advertisment
Chateau Chinon, France (7270): temperature & dewpoint: 12.01.2020 12:00:00 - 18.01.2020 12:00:00 (CET)Chateau Chinon, France (7270): wind speed & gusts: 12.01.2020 12:00:00 - 18.01.2020 12:00:00 (CET)Chateau Chinon, France (7270): wind direction: 12.01.2020 12:00:00 - 18.01.2020 12:00:00 (CET)Chateau Chinon, France (7270): precipitation: 12.01.2020 12:00:00 - 18.01.2020 12:00:00 (CET)
Date & Time tt [°C] td [°C] ff [km/h] ff [kn] fx [km/h] fx [kn] dd rr [mm]
18.01.2020 12:00:00 - - - - - - - -
18.01.2020 11:00:00 2,1 2,0 4 2 13 7 W 0,0
18.01.2020 10:00:00 1,4 1,4 2 1 11 6 W 0,0
18.01.2020 09:00:00 1,2 1,1 4 2 26 14 WNW 0,0
18.01.2020 08:00:00 1,2 1,1 4 2 22 12 W 0,0
18.01.2020 07:00:00 1,1 1,0 2 1 18 10 WNW -
18.01.2020 06:00:00 1,2 1,1 4 2 18 10 WNW 0,0
18.01.2020 05:00:00 1,3 1,2 4 2 18 10 WNW 0,0
18.01.2020 04:00:00 1,6 1,5 4 2 13 7 WNW 0,0
18.01.2020 03:00:00 1,6 1,5 4 2 18 10 WNW 0,0
18.01.2020 02:00:00 2,0 1,9 4 2 18 10 NW 0,0
18.01.2020 01:00:00 2,3 2,2 4 2 16 9 NW -
18.01.2020 00:00:00 2,4 2,3 4 2 16 9 W 0,0
17.01.2020 23:00:00 2,2 1,9 4 2 21 11 NW 0,0
17.01.2020 22:00:00 2,5 2,2 4 2 22 12 NW 0,0
17.01.2020 21:00:00 3,5 3,4 4 2 16 9 NW 0,0
17.01.2020 20:00:00 3,2 2,9 4 2 16 9 W 0,2
17.01.2020 19:00:00 4,5 4,4 5 3 24 13 NW -
17.01.2020 18:00:00 5,1 5,0 4 2 18 10 WNW 0,0
17.01.2020 17:00:00 5,3 5,2 4 2 15 8 NW 0,0
17.01.2020 16:00:00 4,6 4,2 4 2 28 15 WNW 6,0
17.01.2020 15:00:00 6,4 6,0 4 2 15 8 WNW 0,0
17.01.2020 14:00:00 6,1 6,0 5 3 24 13 NNW 0,0
17.01.2020 13:00:00 6,0 5,7 5 3 34 18 WNW -
17.01.2020 12:00:00 6,2 5,9 4 2 39 21 W 0,0
17.01.2020 11:00:00 6,0 5,7 5 3 37 20 W 0,0
17.01.2020 10:00:00 6,1 5,8 11 6 44 24 WSW 2,0
17.01.2020 09:00:00 6,4 5,7 16 9 52 28 SW 2,0
17.01.2020 08:00:00 6,3 5,1 22 12 48 26 SSW 2,0
17.01.2020 07:00:00 8,0 3,3 18 10 70 38 SW -
17.01.2020 06:00:00 7,8 2,9 18 10 54 29 SSW 0,0
17.01.2020 05:00:00 7,8 2,5 11 6 46 25 S 0,0
17.01.2020 04:00:00 8,5 2,3 11 6 42 23 S 0,0
17.01.2020 03:00:00 8,0 2,9 11 6 46 25 S 0,0
17.01.2020 02:00:00 7,9 3,0 11 6 44 24 S 0,0
17.01.2020 01:00:00 8,1 2,7 11 6 46 25 S -
17.01.2020 00:00:00 7,9 2,8 11 6 44 24 SSE 0,0
16.01.2020 23:00:00 7,8 2,9 13 7 34 18 SSE 0,0
16.01.2020 22:00:00 7,2 3,4 13 7 31 17 SE 0,0
16.01.2020 21:00:00 7,7 3,9 16 9 41 22 SE 0,0
16.01.2020 20:00:00 7,5 4,3 18 10 42 23 SE 0,0
16.01.2020 19:00:00 7,0 4,3 13 7 34 18 SE -
16.01.2020 18:00:00 7,4 4,2 15 8 37 20 ESE 0,0
16.01.2020 17:00:00 9,1 4,5 9 5 29 16 ESE 0,0
16.01.2020 16:00:00 11,4 4,6 5 3 29 16 ESE 0,0
16.01.2020 15:00:00 12,6 4,5 9 5 22 12 SE 0,0
16.01.2020 14:00:00 12,9 4,8 5 3 28 15 SE 0,0
16.01.2020 13:00:00 12,4 4,6 9 5 29 16 SE -
16.01.2020 12:00:00 12,5 5,4 4 2 15 8 E 0,0
16.01.2020 11:00:00 10,2 4,6 4 2 21 11 ESE 0,0
16.01.2020 10:00:00 8,2 4,0 8 4 22 12 ESE 0,0
16.01.2020 09:00:00 6,5 3,3 8 4 16 9 SE 0,0
16.01.2020 08:00:00 6,7 3,3 5 3 21 11 SE 0,0
16.01.2020 07:00:00 7,4 3,4 11 6 24 13 SSW -
16.01.2020 06:00:00 7,3 3,3 4 2 22 12 SSE 0,0
16.01.2020 05:00:00 8,1 3,5 8 4 28 15 SW 0,0
16.01.2020 04:00:00 8,3 3,9 11 6 22 12 SSW 0,0
16.01.2020 03:00:00 8,2 4,2 13 7 28 15 SW 0,0
16.01.2020 02:00:00 8,3 4,9 8 4 28 15 WSW 0,0
16.01.2020 01:00:00 8,4 5,1 9 5 29 16 SW -
16.01.2020 00:00:00 8,5 5,1 11 6 34 18 SW 0,0
15.01.2020 23:00:00 8,3 5,0 11 6 26 14 SW 0,0
15.01.2020 22:00:00 8,1 5,6 8 4 34 18 W 0,2
15.01.2020 21:00:00 9,3 4,5 9 5 37 20 WSW 0,0
15.01.2020 20:00:00 9,7 4,3 11 6 42 23 SW 0,0
15.01.2020 19:00:00 10,5 3,7 18 10 52 28 SSW -
15.01.2020 18:00:00 10,7 3,7 18 10 42 23 SSW 0,0
15.01.2020 17:00:00 10,7 3,7 11 6 42 23 SSW 0,0
15.01.2020 16:00:00 10,9 3,4 18 10 52 28 SSW 0,0
15.01.2020 15:00:00 11,4 3,2 16 9 46 25 SW 0,0
15.01.2020 14:00:00 11,5 2,8 18 10 68 37 SSW 0,0
15.01.2020 13:00:00 11,0 2,8 16 9 54 29 SSW -
15.01.2020 12:00:00 9,7 2,3 21 11 63 34 SSW 0,0
15.01.2020 11:00:00 8,6 2,8 18 10 57 31 SSW 0,0
15.01.2020 10:00:00 7,9 3,0 18 10 46 25 SSW 0,0
15.01.2020 09:00:00 7,5 3,0 11 6 37 20 S 0,0
15.01.2020 08:00:00 6,8 2,5 9 5 31 17 S 0,0
15.01.2020 07:00:00 6,7 2,8 11 6 35 19 SSE -
15.01.2020 06:00:00 6,6 2,3 13 7 44 24 SE 0,0
15.01.2020 05:00:00 6,7 2,6 15 8 42 23 SSE 0,0
15.01.2020 04:00:00 6,8 2,3 15 8 39 21 SSE 0,0
15.01.2020 03:00:00 7,0 2,1 11 6 35 19 SSE 0,0
15.01.2020 02:00:00 7,0 2,5 9 5 41 22 SSE 0,0
15.01.2020 01:00:00 7,2 2,9 11 6 35 19 SSE -
15.01.2020 00:00:00 7,4 2,5 13 7 39 21 SSE 0,0
14.01.2020 23:00:00 7,6 2,5 11 6 29 16 SSE 0,0
14.01.2020 22:00:00 7,9 2,4 8 4 34 18 S 0,0
14.01.2020 21:00:00 8,2 2,4 9 5 48 26 S 0,0
14.01.2020 20:00:00 9,3 2,8 11 6 41 22 SSE 0,0
14.01.2020 19:00:00 9,4 2,9 11 6 39 21 SSE -
14.01.2020 18:00:00 9,6 2,7 13 7 34 18 SSE 0,0
14.01.2020 17:00:00 10,2 2,1 11 6 39 21 SSE 0,0
14.01.2020 16:00:00 10,6 1,4 9 5 44 24 S 0,0
14.01.2020 15:00:00 10,3 0,6 9 5 37 20 S 0,0
14.01.2020 14:00:00 11,3 0,4 13 7 46 25 S 0,0
14.01.2020 13:00:00 9,7 -0,2 16 9 46 25 SSW -
14.01.2020 12:00:00 8,4 -1,2 16 9 48 26 SSW 0,0
14.01.2020 11:00:00 8,2 -2,2 21 11 46 25 SSW 0,0
14.01.2020 10:00:00 7,4 -2,4 16 9 48 26 S 0,0
14.01.2020 09:00:00 7,0 -2,7 16 9 52 28 SSW 0,0
14.01.2020 08:00:00 6,8 -2,6 18 10 46 25 SSW 0,0
14.01.2020 07:00:00 6,7 -3,0 18 10 48 26 SSW -
14.01.2020 06:00:00 6,4 -2,8 18 10 44 24 SSW 0,0
14.01.2020 05:00:00 6,4 -2,5 18 10 54 29 SSW 0,0
14.01.2020 04:00:00 6,3 -2,6 18 10 55 30 SSW 0,0
14.01.2020 03:00:00 6,2 -3,5 18 10 48 26 SSW 0,0
14.01.2020 02:00:00 6,2 -2,9 18 10 50 27 SSW 0,0
14.01.2020 01:00:00 6,4 -1,0 18 10 42 23 SSW -
14.01.2020 00:00:00 6,7 -0,3 18 10 39 21 SSW 0,0
13.01.2020 23:00:00 6,8 1,5 18 10 41 22 SSW 0,0
13.01.2020 22:00:00 7,4 3,6 15 8 37 20 SSW 0,0
13.01.2020 21:00:00 6,7 4,2 8 4 26 14 S 0,0
13.01.2020 20:00:00 6,3 4,5 9 5 24 13 SSE 0,0
13.01.2020 19:00:00 6,5 4,5 9 5 26 14 SSE -
13.01.2020 18:00:00 5,9 4,7 9 5 24 13 SE 0,0
13.01.2020 17:00:00 6,7 5,0 8 4 26 14 SE 0,0
13.01.2020 16:00:00 7,7 5,7 5 3 24 13 SW 0,0
13.01.2020 15:00:00 8,7 6,8 5 3 22 12 S 0,0
13.01.2020 14:00:00 8,0 7,6 4 2 22 12 SSE 0,0
13.01.2020 13:00:00 6,2 6,2 5 3 28 15 S -
13.01.2020 12:00:00 5,6 5,6 8 4 24 13 SSW 0,0
13.01.2020 11:00:00 5,3 5,3 4 2 21 11 SSW 0,0
13.01.2020 10:00:00 5,1 5,1 4 2 18 10 SW 0,0
13.01.2020 09:00:00 4,8 4,8 2 1 18 10 SW 0,0
13.01.2020 08:00:00 4,7 4,7 4 2 18 10 S 0,0
13.01.2020 07:00:00 4,6 4,6 4 2 15 8 W -
13.01.2020 06:00:00 4,6 4,6 8 4 18 10 SW 0,0
13.01.2020 05:00:00 4,5 4,5 8 4 22 12 SW 0,0
13.01.2020 04:00:00 4,3 4,3 8 4 18 10 SSW 0,2
13.01.2020 03:00:00 4,3 4,3 8 4 16 9 SW 0,0
13.01.2020 02:00:00 4,2 4,2 2 1 11 6 S 0,0
13.01.2020 01:00:00 4,3 4,3 4 2 16 9 SW -
13.01.2020 00:00:00 3,8 3,7 4 2 11 6 S 0,0
12.01.2020 23:00:00 3,5 3,4 4 2 11 6 S 0,2
12.01.2020 22:00:00 3,3 3,2 5 3 16 9 SSW 0,4
12.01.2020 21:00:00 3,1 3,0 4 2 16 9 SSW 0,0
12.01.2020 20:00:00 2,9 2,6 5 3 15 8 SSW 0,4
12.01.2020 19:00:00 3,1 2,5 5 3 16 9 SW -
12.01.2020 18:00:00 3,6 2,0 8 4 21 11 SW 0,0
12.01.2020 17:00:00 3,7 1,4 4 2 16 9 SW 0,0
12.01.2020 16:00:00 3,7 1,4 5 3 13 7 SSE 0,0
12.01.2020 15:00:00 4,4 1,6 4 2 15 8 W 0,0
12.01.2020 14:00:00 3,7 1,6 4 2 15 8 W 0,0
12.01.2020 13:00:00 3,2 1,2 2 1 15 8 WNW -
12.01.2020 12:00:00 2,8 0,8 2 1 15 8 W 0,0

tt = temperature
td = dewpoint
ff = wind speed
fx = gusts
dd = wind direction
rr = precipitation

Next stations